createdAt,value
2023-05-21T00:01:16.349Z,21.55
2023-05-21T00:06:37.261Z,22.53
2023-05-21T00:11:58.421Z,20.77
2023-05-21T00:17:18.965Z,21.73
2023-05-21T00:22:40.370Z,21.45
2023-05-21T00:28:01.366Z,20.58
2023-05-21T00:33:22.019Z,21.65
2023-05-21T00:38:43.853Z,20.42
2023-05-21T00:44:04.840Z,21.58
2023-05-21T00:49:25.971Z,21.60
2023-05-21T00:54:47.651Z,20.98
2023-05-21T01:00:09.132Z,21.45
2023-05-21T01:05:30.154Z,21.52
2023-05-21T01:10:50.696Z,21.85
2023-05-21T01:16:13.463Z,22.02
2023-05-21T01:21:36.056Z,24.02
2023-05-21T01:26:58.677Z,21.90
2023-05-21T01:32:25.283Z,21.60
2023-05-21T01:37:51.696Z,20.83
2023-05-21T01:43:12.194Z,21.45
2023-05-21T01:48:32.941Z,21.23
2023-05-21T01:53:53.553Z,20.00
2023-05-21T01:59:14.183Z,21.08
2023-05-21T02:04:34.774Z,22.23
2023-05-21T02:09:55.483Z,22.52
2023-05-21T02:15:18.137Z,23.20
2023-05-21T02:20:39.426Z,21.60
2023-05-21T02:26:00.132Z,20.45
2023-05-21T02:31:20.773Z,22.73
2023-05-21T02:36:41.666Z,23.67
2023-05-21T02:42:02.522Z,23.17
2023-05-21T02:47:23.876Z,23.08
2023-05-21T02:52:44.300Z,23.17
2023-05-21T02:58:05.123Z,22.80
2023-05-21T03:03:25.956Z,22.67
2023-05-21T03:08:46.935Z,22.80
2023-05-21T03:14:07.514Z,23.23
2023-05-21T03:19:30.466Z,22.55
2023-05-21T03:24:51.676Z,22.03
2023-05-21T03:30:12.660Z,22.80
2023-05-21T03:35:50.897Z,23.33
2023-05-21T03:41:11.786Z,22.10
2023-05-21T03:46:34.486Z,22.92
2023-05-21T03:52:04.715Z,22.80
2023-05-21T03:57:25.162Z,22.00
2023-05-21T04:02:45.854Z,21.38
2023-05-21T04:08:10.356Z,20.17
2023-05-21T04:13:31.335Z,22.15
2023-05-21T04:18:52.371Z,21.25
2023-05-21T04:24:13.719Z,21.90
2023-05-21T04:30:00.703Z,22.33
2023-05-21T04:35:21.437Z,22.25
2023-05-21T04:40:42.258Z,21.05
2023-05-21T04:46:02.897Z,21.27
2023-05-21T04:51:24.909Z,21.02
2023-05-21T04:56:47.435Z,20.73
2023-05-21T05:02:08.755Z,22.27
2023-05-21T05:07:29.656Z,20.30
2023-05-21T05:12:50.650Z,20.02
2023-05-21T05:18:12.911Z,21.60
2023-05-21T05:23:34.767Z,19.17
2023-05-21T05:28:55.735Z,18.80
2023-05-21T05:34:16.567Z,19.80
2023-05-21T05:39:37.549Z,19.15
2023-05-21T05:44:58.672Z,17.77
2023-05-21T05:50:19.899Z,18.05
2023-05-21T05:55:41.237Z,17.23
2023-05-21T06:01:02.437Z,18.23
2023-05-21T06:06:24.117Z,18.10
2023-05-21T06:11:45.500Z,17.85
2023-05-21T06:17:06.333Z,18.25
2023-05-21T06:22:27.757Z,17.45
2023-05-21T06:27:49.375Z,17.90
2023-05-21T06:33:15.293Z,16.40
2023-05-21T06:38:36.956Z,17.20
2023-05-21T06:43:58.101Z,15.60
2023-05-21T06:49:38.091Z,14.93
2023-05-21T06:54:58.997Z,15.88
2023-05-21T07:00:23.232Z,15.15
2023-05-21T07:05:44.676Z,16.02
2023-05-21T07:11:06.313Z,13.93
2023-05-21T07:16:27.836Z,12.95
2023-05-21T07:21:49.414Z,13.10
2023-05-21T07:27:24.752Z,12.98
2023-05-21T07:32:48.114Z,12.55
2023-05-21T07:38:09.393Z,12.23
2023-05-21T07:43:31.961Z,13.80
2023-05-21T07:48:53.249Z,13.23
2023-05-21T07:54:14.643Z,12.83
2023-05-21T07:59:36.517Z,13.10
2023-05-21T08:04:57.848Z,12.93
2023-05-21T08:10:19.609Z,12.82
2023-05-21T08:15:43.033Z,11.57
2023-05-21T08:21:05.308Z,12.77
2023-05-21T08:31:47.944Z,11.63
2023-05-21T08:37:09.373Z,12.00
2023-05-21T08:42:53.075Z,11.00
2023-05-21T08:48:23.431Z,11.73
2023-05-21T08:53:45.874Z,12.85
2023-05-21T08:59:09.680Z,12.35
2023-05-21T09:04:31.569Z,13.40
2023-05-21T09:10:03.422Z,13.20
2023-05-21T09:15:24.894Z,10.50
2023-05-21T09:20:46.487Z,9.88
2023-05-21T09:26:11.398Z,10.68
2023-05-21T09:31:33.402Z,10.52
2023-05-21T09:36:57.751Z,10.52
2023-05-21T09:42:21.741Z,10.38
2023-05-21T09:47:44.012Z,9.70
2023-05-21T09:53:05.318Z,9.38
2023-05-21T09:58:26.729Z,10.60
2023-05-21T10:03:50.782Z,9.23
2023-05-21T10:09:11.815Z,9.30
2023-05-21T10:14:32.961Z,8.60
2023-05-21T10:19:54.112Z,9.13
2023-05-21T10:25:14.979Z,9.38
2023-05-21T10:30:36.862Z,7.75
2023-05-21T10:35:58.758Z,7.88
2023-05-21T10:41:20.320Z,7.72
2023-05-21T10:47:43.002Z,6.75
2023-05-21T10:53:25.474Z,7.82
2023-05-21T10:58:57.750Z,8.18
2023-05-21T11:09:43.421Z,7.10
2023-05-21T11:15:04.852Z,8.00
2023-05-21T11:20:34.318Z,7.55
2023-05-21T11:26:01.462Z,7.13
2023-05-21T11:31:26.129Z,7.10
2023-05-21T11:36:47.878Z,7.18
2023-05-21T11:42:08.890Z,6.97
2023-05-21T11:47:30.495Z,7.50
2023-05-21T11:52:52.959Z,7.25
2023-05-21T12:03:36.139Z,6.53
2023-05-21T12:08:58.585Z,5.63
2023-05-21T12:14:19.377Z,6.18
2023-05-21T12:19:40.608Z,6.90
2023-05-21T12:25:02.150Z,5.72
2023-05-21T12:30:23.226Z,6.13
2023-05-21T12:35:50.582Z,6.37
2023-05-21T12:41:11.375Z,5.07
2023-05-21T12:46:32.446Z,4.80
2023-05-21T12:51:53.434Z,5.60
2023-05-21T12:57:18.598Z,5.40
2023-05-21T13:02:44.342Z,5.88
2023-05-21T13:08:06.223Z,5.18
2023-05-21T13:13:27.007Z,5.20
2023-05-21T13:18:47.815Z,4.60
2023-05-21T13:24:08.444Z,4.72
2023-05-21T13:29:29.223Z,4.57
2023-05-21T13:34:52.657Z,4.32
2023-05-21T13:40:15.274Z,3.80
2023-05-21T13:45:36.783Z,4.85
2023-05-21T13:50:57.699Z,4.50
2023-05-21T13:56:18.580Z,4.32
2023-05-21T14:01:39.311Z,4.25
2023-05-21T14:07:00.004Z,4.63
2023-05-21T14:12:21.847Z,4.55
2023-05-21T14:17:42.700Z,4.75
2023-05-21T14:23:03.434Z,4.43
2023-05-21T14:28:24.292Z,3.78
2023-05-21T14:33:44.712Z,3.70
2023-05-21T14:39:05.983Z,3.53
2023-05-21T14:44:27.000Z,4.13
2023-05-21T14:49:49.012Z,4.05
2023-05-21T14:55:12.854Z,4.13
2023-05-21T15:00:34.311Z,3.90
2023-05-21T15:05:55.050Z,3.70
2023-05-21T15:11:15.872Z,3.67
2023-05-21T15:16:37.077Z,3.65
2023-05-21T15:21:57.925Z,3.47
2023-05-21T15:27:18.595Z,4.10
2023-05-21T15:32:39.251Z,4.20
2023-05-21T15:38:00.094Z,3.35
2023-05-21T15:43:20.668Z,4.10
2023-05-21T15:48:41.302Z,4.30
2023-05-21T15:54:02.016Z,3.45
2023-05-21T15:59:22.655Z,3.70
2023-05-21T16:04:43.625Z,3.70
2023-05-21T16:10:04.426Z,3.92
2023-05-21T16:15:25.621Z,4.22
2023-05-21T16:20:47.099Z,4.13
2023-05-21T16:26:08.717Z,4.10
2023-05-21T16:31:29.561Z,4.10
2023-05-21T16:36:51.670Z,4.35
2023-05-21T16:42:12.195Z,4.20
2023-05-21T16:47:33.075Z,4.70
2023-05-21T16:52:53.550Z,4.40
2023-05-21T16:58:14.282Z,4.57
2023-05-21T17:03:35.327Z,4.03
2023-05-21T17:08:56.083Z,4.18
2023-05-21T17:14:32.523Z,4.97
2023-05-21T17:19:55.019Z,6.10
2023-05-21T17:25:16.109Z,5.38
2023-05-21T17:30:37.236Z,5.53
2023-05-21T17:35:58.020Z,5.57
2023-05-21T17:41:19.377Z,5.57
2023-05-21T17:46:40.163Z,4.85
2023-05-21T17:52:03.079Z,5.30
2023-05-21T17:57:24.572Z,5.47
2023-05-21T18:02:46.186Z,5.23
2023-05-21T18:08:09.976Z,5.88
2023-05-21T18:13:30.979Z,5.63
2023-05-21T18:18:51.969Z,5.53
2023-05-21T18:24:12.981Z,5.22
2023-05-21T18:29:33.707Z,4.97
2023-05-21T18:34:54.360Z,5.05
2023-05-21T18:40:15.227Z,5.38
2023-05-21T18:45:36.763Z,4.97
2023-05-21T18:50:57.983Z,5.35
2023-05-21T18:56:18.675Z,5.40
2023-05-21T19:01:39.430Z,5.45
2023-05-21T19:06:59.938Z,5.13
2023-05-21T19:12:20.846Z,4.95
2023-05-21T19:17:41.661Z,5.32
2023-05-21T19:23:02.511Z,5.40
2023-05-21T19:28:23.311Z,4.65
2023-05-21T19:33:43.997Z,5.18
2023-05-21T19:39:04.607Z,4.85
2023-05-21T19:44:25.405Z,5.15
2023-05-21T19:49:46.137Z,5.78
2023-05-21T19:55:08.704Z,6.13
2023-05-21T20:00:29.636Z,5.40
2023-05-21T20:05:50.488Z,5.53
2023-05-21T20:11:11.275Z,6.10
2023-05-21T20:16:31.958Z,5.70
2023-05-21T20:21:52.891Z,6.18
2023-05-21T20:27:18.614Z,5.53
2023-05-21T20:32:39.210Z,5.80
2023-05-21T20:38:02.228Z,5.68
2023-05-21T20:43:24.535Z,5.13
2023-05-21T20:48:45.642Z,5.05
2023-05-21T20:54:06.731Z,5.60
2023-05-21T20:59:27.839Z,5.15
2023-05-21T21:04:49.182Z,5.55
2023-05-21T21:10:10.113Z,5.10
2023-05-21T21:15:30.972Z,5.13
2023-05-21T21:20:51.831Z,5.43
2023-05-21T21:26:12.712Z,5.55
2023-05-21T21:31:34.105Z,5.75
2023-05-21T21:36:54.703Z,4.97
2023-05-21T21:42:15.648Z,5.72
2023-05-21T21:47:36.848Z,5.32
2023-05-21T21:52:57.513Z,5.90
2023-05-21T21:58:18.237Z,5.38
2023-05-21T22:03:38.923Z,6.20
2023-05-21T22:08:59.547Z,5.55
2023-05-21T22:14:20.368Z,5.57
2023-05-21T22:19:41.239Z,5.63
2023-05-21T22:25:02.142Z,5.38
2023-05-21T22:30:22.999Z,5.70
2023-05-21T22:35:44.799Z,6.18
2023-05-21T22:41:05.827Z,5.60
2023-05-21T22:46:26.629Z,5.63
2023-05-21T22:51:48.063Z,5.70
2023-05-21T22:57:09.141Z,5.95
2023-05-21T23:02:30.532Z,5.82
2023-05-21T23:07:51.932Z,5.95
2023-05-21T23:13:12.996Z,5.07
2023-05-21T23:18:34.765Z,5.18
2023-05-21T23:23:55.746Z,4.95
2023-05-21T23:29:16.599Z,5.45
2023-05-21T23:34:37.455Z,5.43
2023-05-21T23:39:58.459Z,5.00
2023-05-21T23:45:19.163Z,5.10
2023-05-21T23:50:40.306Z,5.75
2023-05-21T23:56:01.019Z,5.65
